Aérodrome :
LOGIN :

S'inscrire | Disclaimer

   EN    FR    IT 

 










Légende :    VFR   VFR Marginal   IFR   IFR Intensif   IFR Très Intensif
Visi : 
Plafond : 
>= 8 km
>= 3000ft
5 à 8 km
1000 à 3000 ft
1500m à 5 km
500 à 1000 ft
800 à 1500m
200 à 500 ft
< 800m
< 200 ft
Symboles :   Orages  Brouillard  Fortes neiges  Fortes précipitations  Vent > 20 kt
SIGMETs :   Divers  Orages  Givrage  Turbulence  Onde Orograph.  Cendres Volcan.







- Altitude de l'aérodrome : 978 ft
- Code IATA : LNZ


LOWL - Linz

DERNIER METAR :
  • 291720Z AUTO 27004KT 9999 OVC080 10/03 Q1017 NOSIG

METARs EXPIRÉS :
  • 291650Z 27005KT 9999 FEW035 BKN090 10/03 Q1018 NOSIG
  • 291620Z 27005KT 9999 FEW035 BKN090 10/03 Q1018 NOSIG
  • 291550Z 31005KT 9999 FEW035 BKN090 10/03 Q1018 NOSIG
  • 291520Z 29005KT 9999 FEW035 SCT060 BKN080 10/04 Q1018 NOSIG
  • 291450Z 22004KT 9999 FEW030 BKN080 10/03 Q1018 NOSIG

TAF TAF LOWL
Valide du 29 à 18h jusqu'au 30 à 18h UTC


291715Z 2918/3018 VRB02KT CAVOK TX16/3014Z TN00/3003Z
TEMPO 3002/3006 0500 BCFG NSC
BECMG 3006/3008 10012KT
TEMPO 3012/3018 10017KT
Pas de NOTAMs connus pour ce terrain.



MET'MAP, la Météo Aéronautique d'un coup d'oeil ! - Copyright ORBIFLY Décembre 2007 - Disclaimer

ORBIFLY MET'MAP TEAM :

Programmation & Développement : Alexandra Zaïnal
Conception & Développement : Baudouin d'Aumeries
Co-Programmation & Développement : Marc-Olivier Méhu
Soutien technique & logistique : Manuel Goepfert

Contact : metmap@orbifly.com




SOURCES & CREDITS :

   NOAA